Time;durP1;ratioP1;P1;durP2;ratioP2;P2;SDS_P1;SDS_P2;PMS_P1;PMS_P2;Temp;Humidity;BMP_temperature;BMP_pressure;BME280_temperature;BME280_humidity;BME280_pressure;Samples;Min_cycle;Max_cycle;Signal;HPM_P1;HPM_P2
2022/04/17 00:02:15;;;;;;;2.25;1.35;;;;;;;9.60;49.77;103110.00;4973958;28;117016;-35
2022/04/17 00:04:40;;;;;;;2.55;1.38;;;;;;;9.62;50.09;103107.28;4974368;28;98000;-34
2022/04/17 00:07:06;;;;;;;2.30;1.38;;;;;;;9.59;50.07;103112.75;4974847;28;97285;-34
2022/04/17 00:09:32;;;;;;;1.88;1.20;;;;;;;9.49;50.46;103106.66;4973740;28;110212;-34
2022/04/17 00:11:58;;;;;;;1.92;1.27;;;;;;;9.47;50.20;103105.78;4973391;28;96878;-34
2022/04/17 00:14:32;;;;;;;1.58;1.25;;;;;;;9.44;50.12;103108.53;4974001;28;98193;-34
2022/04/17 00:16:57;;;;;;;2.60;1.48;;;;;;;9.36;50.34;103089.75;4974098;28;107491;-34
2022/04/17 00:19:23;;;;;;;2.65;1.30;;;;;;;9.31;50.26;103105.19;4974576;28;96449;-34
2022/04/17 00:21:49;;;;;;;3.97;1.50;;;;;;;9.24;50.36;103109.81;4974385;28;96724;-34
2022/04/17 00:24:15;;;;;;;1.58;1.13;;;;;;;9.24;50.46;103104.41;4972888;28;100886;-34
2022/04/17 00:26:41;;;;;;;4.63;1.55;;;;;;;9.17;50.66;103091.94;4974385;28;97772;-34
2022/04/17 00:29:06;;;;;;;2.15;1.55;;;;;;;9.13;50.51;103099.22;4973085;28;96642;-34
2022/04/17 00:31:31;;;;;;;1.63;1.25;;;;;;;9.07;50.69;103088.53;4974540;28;96708;-34
2022/04/17 00:33:57;;;;;;;2.50;1.42;;;;;;;9.11;50.70;103087.56;4973111;28;126555;-34
2022/04/17 00:36:22;;;;;;;2.00;1.45;;;;;;;9.12;51.09;103089.31;4972924;28;129283;-34
2022/04/17 00:38:47;;;;;;;2.33;1.35;;;;;;;9.06;51.25;103085.88;4973571;28;97102;-34
2022/04/17 00:41:13;;;;;;;2.35;1.42;;;;;;;9.06;50.98;103081.34;4974436;28;96729;-34
2022/04/17 00:43:47;;;;;;;1.98;1.30;;;;;;;8.90;51.09;103060.94;4973441;28;126776;-34
2022/04/17 00:46:13;;;;;;;2.60;1.48;;;;;;;8.98;51.00;103077.88;4972334;28;101056;-34
2022/04/17 00:48:39;;;;;;;3.92;1.70;;;;;;;9.01;50.91;103079.63;4975087;28;96731;-34
2022/04/17 00:51:06;;;;;;;3.17;1.83;;;;;;;8.90;51.67;103074.44;4977499;28;96780;-34
2022/04/17 00:53:33;;;;;;;3.17;1.60;;;;;;;8.82;51.72;103076.38;4975877;28;100852;-34
2022/04/17 00:55:59;;;;;;;1.88;1.45;;;;;;;8.82;52.09;103073.69;4976037;28;101259;-34
2022/04/17 00:58:26;;;;;;;3.50;2.22;;;;;;;8.80;51.55;103067.44;4977616;28;96678;-34
2022/04/17 01:00:51;;;;;;;2.70;1.52;;;;;;;8.74;51.97;103078.34;4975548;28;96862;-34
2022/04/17 01:03:17;;;;;;;2.97;1.90;;;;;;;8.69;51.66;103062.22;4976624;28;98734;-34
2022/04/17 01:05:44;;;;;;;2.13;1.67;;;;;;;8.69;52.04;103068.50;4975557;28;100971;-34
2022/04/17 01:08:10;;;;;;;2.72;1.48;;;;;;;8.60;52.54;103056.97;4975636;28;96740;-34
2022/04/17 01:10:37;;;;;;;2.20;1.40;;;;;;;8.59;51.90;103049.78;4975673;28;96854;-34
2022/04/17 01:13:03;;;;;;;3.20;1.80;;;;;;;8.70;52.44;103072.13;4977035;28;97446;-34
2022/04/17 01:15:29;;;;;;;3.10;1.95;;;;;;;8.63;52.20;103068.63;4975292;28;101131;-34
2022/04/17 01:17:55;;;;;;;2.70;1.63;;;;;;;8.56;51.63;103048.03;4975907;28;96602;-34
2022/04/17 01:20:22;;;;;;;3.55;1.80;;;;;;;8.58;52.44;103057.00;4977553;28;96746;-34
2022/04/17 01:26:55;;;;;;;4.07;1.85;;;;;;;8.64;52.35;103064.09;4975286;28;101209;-34
2022/04/17 01:28:25;;;;;;;2.33;1.55;;;;;;;8.59;52.48;103066.00;4973493;28;96693;-34
2022/04/17 01:30:54;;;;;;;3.25;1.95;;;;;;;8.58;52.37;103067.81;4977086;28;96752;-34
2022/04/17 01:33:23;;;;;;;4.15;2.28;;;;;;;8.52;52.59;103062.50;4975071;28;101200;-34
2022/04/17 01:35:49;;;;;;;3.20;1.92;;;;;;;8.48;52.87;103058.97;4975082;28;98272;-34
2022/04/17 01:38:15;;;;;;;3.15;1.88;;;;;;;8.47;53.10;103076.09;4976614;28;97064;-34
2022/04/17 01:40:40;;;;;;;5.07;2.38;;;;;;;8.37;52.72;103050.13;4975293;28;96851;-34
2022/04/17 01:43:10;;;;;;;3.25;1.67;;;;;;;8.35;52.63;103059.19;4976439;28;100000;-34
2022/04/17 01:45:35;;;;;;;2.65;1.67;;;;;;;8.33;52.98;103053.78;4976514;28;98866;-34
2022/04/17 01:48:01;;;;;;;3.47;2.20;;;;;;;8.37;52.52;103071.75;4975639;28;115595;-34
2022/04/17 01:50:27;;;;;;;3.75;2.20;;;;;;;8.29;52.88;103062.84;4976749;28;96845;-34
2022/04/17 01:52:53;;;;;;;3.83;2.08;;;;;;;8.22;53.26;103064.78;4974175;28;101639;-34
2022/04/17 01:55:18;;;;;;;3.03;1.98;;;;;;;8.18;53.31;103054.94;4974650;28;100065;-34
2022/04/17 01:57:44;;;;;;;3.28;1.58;;;;;;;8.26;52.96;103065.63;4976554;28;96700;-34
2022/04/17 02:00:10;;;;;;;2.95;1.73;;;;;;;8.19;53.41;103058.53;4975393;28;96802;-34
2022/04/17 02:02:35;;;;;;;5.18;2.13;;;;;;;8.18;53.69;103056.75;4974668;28;102232;-34
2022/04/17 02:05:00;;;;;;;4.15;1.95;;;;;;;8.11;52.82;103055.06;4975423;28;122633;-34
2022/04/17 02:07:38;;;;;;;4.15;2.25;;;;;;;8.11;53.18;103064.06;4974801;28;117897;-34
2022/04/17 02:10:04;;;;;;;2.92;1.75;;;;;;;8.07;53.68;103068.59;4975233;28;114362;-34
2022/04/17 02:12:30;;;;;;;3.58;2.33;;;;;;;8.01;53.41;103048.94;4975837;28;97967;-34
2022/04/17 02:14:56;;;;;;;8.93;2.35;;;;;;;8.06;53.59;103063.25;4974962;28;126764;-34
2022/04/17 02:17:21;;;;;;;5.30;1.83;;;;;;;7.98;53.26;103048.94;4975541;28;96626;-34
2022/04/17 02:19:46;;;;;;;3.22;1.70;;;;;;;8.03;53.57;103057.88;4976076;28;96744;-34
2022/04/17 02:22:13;;;;;;;4.18;2.70;;;;;;;7.97;53.30;103058.88;4975660;28;99396;-34
2022/04/17 02:24:38;;;;;;;3.22;2.03;;;;;;;7.87;53.89;103043.72;4975912;28;97765;-34
2022/04/17 02:27:04;;;;;;;2.55;1.75;;;;;;;7.90;53.68;103057.16;4975142;28;116884;-34
2022/04/17 02:29:29;;;;;;;3.40;1.67;;;;;;;7.86;53.50;103050.03;4974427;28;96818;-34
2022/04/17 02:31:54;;;;;;;3.10;1.83;;;;;;;7.85;53.64;103051.84;4975603;28;99208;-34
2022/04/17 02:34:19;;;;;;;2.15;1.38;;;;;;;7.75;53.78;103043.91;4974765;28;127833;-34
2022/04/17 02:36:45;;;;;;;3.83;2.22;;;;;;;7.79;53.84;103048.31;4974721;28;115371;-34
2022/04/17 02:39:10;;;;;;;3.65;2.30;;;;;;;7.76;54.41;103049.28;4975095;28;113484;-34
2022/04/17 02:41:36;;;;;;;3.33;1.98;;;;;;;7.69;54.45;103041.28;4974464;28;113331;-34
2022/04/17 02:44:01;;;;;;;4.55;2.58;;;;;;;7.73;53.95;103032.25;4975576;28;97383;-34
2022/04/17 02:49:11;;;;;;;6.30;1.85;;;;;;;7.62;54.52;103027.88;4975775;28;96524;-34
2022/04/17 02:51:36;;;;;;;2.97;2.00;;;;;;;7.56;54.95;103016.31;4975130;28;99258;-34
2022/04/17 02:54:02;;;;;;;4.13;2.13;;;;;;;7.60;54.66;103024.34;4975442;28;97830;-34
2022/04/17 02:56:27;;;;;;;4.70;2.45;;;;;;;7.52;54.11;103020.84;4976111;28;96642;-34
2022/04/17 02:58:54;;;;;;;3.88;2.25;;;;;;;7.52;54.85;103017.25;4975860;28;96977;-34
2022/04/17 03:06:49;;;;;;;3.13;2.08;;;;;;;7.50;55.36;103019.09;4975437;28;96825;-34
2022/04/17 03:09:14;;;;;;;3.92;2.70;;;;;;;7.38;54.88;102998.56;4973739;28;117662;-34
2022/04/17 03:11:39;;;;;;;4.47;2.22;;;;;;;7.47;54.52;103024.53;4974030;28;126535;-34
2022/04/17 03:14:05;;;;;;;3.85;2.50;;;;;;;7.48;55.57;103018.19;4974152;28;120910;-34
2022/04/17 03:16:39;;;;;;;5.38;2.70;;;;;;;7.40;54.94;103018.31;4974447;28;116465;-34
2022/04/17 03:19:06;;;;;;;3.33;2.17;;;;;;;7.35;55.36;103014.78;4974096;28;118309;-34
2022/04/17 03:21:32;;;;;;;4.40;2.25;;;;;;;7.41;55.47;103025.47;4975038;28;97844;-34
2022/04/17 03:23:57;;;;;;;3.08;2.03;;;;;;;7.30;54.52;103006.75;4975456;28;97891;-34
2022/04/17 03:26:22;;;;;;;2.72;1.70;;;;;;;7.31;54.59;103004.94;4974349;28;109207;-34
2022/04/17 03:28:48;;;;;;;9.48;1.85;;;;;;;7.25;55.60;103002.34;4974161;28;116671;-34
2022/04/17 03:31:13;;;;;;;2.72;2.10;;;;;;;7.23;54.76;102999.66;4973742;28;125635;-34
2022/04/17 03:33:38;;;;;;;3.33;2.10;;;;;;;7.25;54.91;103008.63;4974627;28;110433;-34
2022/04/17 03:36:03;;;;;;;4.18;2.42;;;;;;;7.15;55.01;102993.47;4973859;28;117590;-34
2022/04/17 03:38:29;;;;;;;2.28;1.70;;;;;;;7.18;55.05;103004.22;4974417;28;107605;-34
2022/04/17 03:40:54;;;;;;;6.28;2.38;;;;;;;7.13;54.98;102998.91;4973866;28;126693;-34
2022/04/17 03:43:22;;;;;;;3.72;1.88;;;;;;;7.14;55.45;103011.44;4973860;28;117744;-34
2022/04/17 03:45:49;;;;;;;3.67;2.13;;;;;;;7.05;54.86;102995.38;4974905;28;96631;-34
2022/04/17 03:48:17;;;;;;;2.92;2.10;;;;;;;7.12;55.40;102999.78;4975237;28;96774;-34
2022/04/17 03:50:43;;;;;;;2.20;1.60;;;;;;;7.11;55.31;103000.72;4973229;28;101229;-34
2022/04/17 03:53:08;;;;;;;4.60;2.13;;;;;;;7.11;55.13;102999.81;4973147;28;100913;-34
2022/04/17 03:55:35;;;;;;;4.75;2.72;;;;;;;7.03;54.85;102991.81;4973899;28;104706;-34
2022/04/17 03:58:01;;;;;;;4.80;2.53;;;;;;;7.04;55.20;103003.50;4974747;28;96771;-34
2022/04/17 04:00:26;;;;;;;4.28;2.85;;;;;;;6.95;55.55;102994.59;4974258;28;98062;-34
2022/04/17 04:02:52;;;;;;;4.72;1.90;;;;;;;7.00;55.44;103006.22;4974006;28;113872;-34
2022/04/17 04:05:18;;;;;;;3.58;2.13;;;;;;;6.92;55.33;102994.66;4974665;28;96526;-34
2022/04/17 04:07:44;;;;;;;7.05;3.10;;;;;;;6.93;55.31;102998.22;4974376;28;96895;-34
2022/04/17 04:10:10;;;;;;;3.03;1.83;;;;;;;6.84;55.46;102987.56;4972990;28;122093;-35
2022/04/17 04:12:36;;;;;;;6.18;2.67;;;;;;;6.87;55.35;103001.91;4973414;28;98946;-34
2022/04/17 04:15:02;;;;;;;5.40;1.95;;;;;;;6.84;55.29;102991.16;4973218;28;96545;-34
2022/04/17 04:17:27;;;;;;;3.50;2.03;;;;;;;6.78;55.90;102986.72;4973351;28;96913;-34
2022/04/17 04:19:53;;;;;;;4.25;2.10;;;;;;;6.79;55.90;102988.53;4972624;28;128271;-34
2022/04/17 04:22:20;;;;;;;3.25;2.22;;;;;;;6.79;55.81;102985.84;4974416;28;99693;-34
2022/04/17 04:24:46;;;;;;;4.00;2.30;;;;;;;6.75;55.82;102983.19;4976512;28;96728;-34
2022/04/17 04:29:55;;;;;;;4.97;2.28;;;;;;;6.68;55.52;102976.97;4977677;28;97074;-34
2022/04/17 04:32:20;;;;;;;4.85;2.40;;;;;;;6.68;56.05;102982.34;4977095;28;113384;-34
2022/04/17 04:34:46;;;;;;;4.10;2.75;;;;;;;6.70;56.03;102982.34;4978091;28;96461;-34
2022/04/17 04:37:11;;;;;;;3.30;2.03;;;;;;;6.67;55.54;102982.38;4978093;28;96747;-34
2022/04/17 04:39:38;;;;;;;3.70;2.30;;;;;;;6.67;55.91;102982.38;4977068;28;98075;-34
2022/04/17 04:42:03;;;;;;;4.32;1.98;;;;;;;6.50;56.25;102951.13;4977443;28;97935;-34
2022/04/17 04:44:29;;;;;;;5.28;2.50;;;;;;;6.56;56.80;102985.19;4977182;28;96580;-34
2022/04/17 04:46:55;;;;;;;3.65;1.92;;;;;;;6.53;56.22;102971.72;4977150;28;104858;-34
2022/04/17 04:49:30;;;;;;;2.25;1.95;;;;;;;6.52;57.02;102973.53;4977102;28;99398;-34
2022/04/17 04:51:56;;;;;;;2.35;1.50;;;;;;;6.53;56.07;102969.03;4975814;28;100958;-34
2022/04/17 04:54:22;;;;;;;3.88;2.25;;;;;;;6.45;56.91;102958.34;4977511;28;96555;-34
2022/04/17 04:56:47;;;;;;;3.58;2.15;;;;;;;6.50;56.36;102974.47;4976505;28;116410;-34
2022/04/17 04:59:12;;;;;;;4.50;2.03;;;;;;;6.43;56.47;102953.91;4976488;28;105914;-34
2022/04/17 05:01:38;;;;;;;3.15;2.05;;;;;;;6.50;56.02;102971.78;4977395;28;99327;-34
2022/04/17 05:04:03;;;;;;;3.28;1.95;;;;;;;6.42;56.46;102954.81;4976454;28;116850;-34
2022/04/17 05:06:28;;;;;;;3.17;2.17;;;;;;;6.51;56.18;102963.69;4977156;28;96931;-34
2022/04/17 05:08:54;;;;;;;7.18;2.58;;;;;;;6.52;56.47;102975.34;4975430;28;117574;-34
2022/04/17 05:11:20;;;;;;;2.80;2.00;;;;;;;6.46;55.60;102962.84;4977183;28;97399;-34
2022/04/17 05:13:46;;;;;;;2.20;1.27;;;;;;;6.46;56.16;102967.31;4977462;28;96569;-34
2022/04/17 05:16:11;;;;;;;3.10;1.98;;;;;;;6.43;55.96;102972.75;4977112;28;96697;-34
2022/04/17 05:18:36;;;;;;;5.10;2.05;;;;;;;6.34;56.13;102962.94;4976636;28;100105;-34
2022/04/17 05:21:02;;;;;;;4.18;2.10;;;;;;;6.43;56.06;102972.75;4976334;28;102998;-34
2022/04/17 05:23:29;;;;;;;4.18;1.98;;;;;;;6.35;55.99;102964.75;4977143;28;96528;-34
2022/04/17 05:25:59;;;;;;;4.10;1.85;;;;;;;6.34;56.07;102957.56;4975928;28;96946;-34
2022/04/17 05:28:25;;;;;;;2.92;2.05;;;;;;;6.37;55.72;102958.44;4975223;28;100972;-34
2022/04/17 05:30:51;;;;;;;3.30;1.77;;;;;;;6.32;55.49;102960.28;4975233;28;101359;-34
2022/04/17 05:33:21;;;;;;;2.67;1.67;;;;;;;6.37;55.73;102969.22;4976162;28;96463;-34
2022/04/17 05:35:47;;;;;;;3.47;1.90;;;;;;;6.32;55.63;102965.69;4974414;28;96812;-34
2022/04/17 05:38:13;;;;;;;2.60;1.52;;;;;;;6.36;55.60;102971.91;4975088;28;100756;-34
2022/04/17 05:40:41;;;;;;;3.97;2.28;;;;;;;6.44;55.23;102977.25;4975139;28;100822;-34
2022/04/17 05:43:07;;;;;;;3.42;2.22;;;;;;;6.48;55.24;102974.47;4975195;28;97561;-34
2022/04/17 05:45:41;;;;;;;2.88;2.10;;;;;;;6.54;55.87;102976.22;4976972;28;96779;-34
2022/04/17 05:48:09;;;;;;;6.90;2.13;;;;;;;6.51;55.05;102952.03;4976213;28;97541;-34
2022/04/17 05:50:34;;;;;;;3.22;1.77;;;;;;;6.58;55.22;102961.84;4975190;28;100895;-34
2022/04/17 05:53:00;;;;;;;3.78;1.83;;;;;;;6.58;54.86;102962.72;4976623;28;97091;-34
2022/04/17 05:55:27;;;;;;;3.28;1.73;;;;;;;6.67;54.81;102974.28;4975098;28;97066;-34
2022/04/17 05:57:52;;;;;;;4.10;2.55;;;;;;;6.72;54.84;102975.13;4975476;28;99301;-34
2022/04/17 06:00:17;;;;;;;2.13;1.30;;;;;;;6.71;53.88;102973.34;4976273;28;97257;-34
2022/04/17 06:02:46;;;;;;;3.53;1.83;;;;;;;6.75;53.98;102965.22;4976181;28;96478;-34
2022/04/17 06:05:13;;;;;;;5.18;1.52;;;;;;;6.88;54.27;102965.06;4974988;28;96667;-34
2022/04/17 06:07:40;;;;;;;2.38;1.58;;;;;;;6.98;54.65;102974.81;4975894;28;97360;-34
2022/04/17 06:10:07;;;;;;;5.05;1.77;;;;;;;7.07;53.69;102973.81;4974233;28;100896;-34
2022/04/17 06:12:33;;;;;;;2.78;1.88;;;;;;;7.04;53.33;102955.88;4974757;28;96594;-34
2022/04/17 06:14:58;;;;;;;2.08;1.08;;;;;;;7.12;53.17;102958.47;4976722;28;96573;-34
2022/04/17 06:17:24;;;;;;;2.83;1.35;;;;;;;7.26;53.27;102963.69;4975745;28;97402;-34
2022/04/17 06:19:49;;;;;;;2.33;1.30;;;;;;;7.40;52.92;102965.28;4975985;28;97813;-34
2022/04/17 06:22:14;;;;;;;2.38;1.63;;;;;;;7.45;52.89;102954.44;4975455;28;97318;-34
2022/04/17 06:24:40;;;;;;;2.28;1.60;;;;;;;7.63;52.75;102962.25;4975148;28;117401;-34
2022/04/17 06:27:05;;;;;;;4.90;2.22;;;;;;;7.85;52.49;102973.59;4974768;28;127419;-34
2022/04/17 06:29:31;;;;;;;2.17;1.63;;;;;;;7.96;52.35;102959.03;4975554;28;99435;-34
2022/04/17 06:31:57;;;;;;;1.75;1.20;;;;;;;8.08;51.87;102965.13;4974435;28;96915;-34
2022/04/17 06:34:22;;;;;;;3.00;1.52;;;;;;;8.14;51.72;102961.41;4976011;28;96470;-34
2022/04/17 06:36:47;;;;;;;2.47;1.60;;;;;;;8.24;50.37;102970.25;4975627;28;97763;-34
2022/04/17 06:39:13;;;;;;;3.15;1.48;;;;;;;8.32;51.41;102965.63;4976117;28;97881;-34
2022/04/17 06:41:38;;;;;;;2.95;1.45;;;;;;;8.47;51.48;102964.47;4975789;28;96490;-34
2022/04/17 06:44:04;;;;;;;3.53;1.90;;;;;;;8.60;51.09;102957.91;4975022;28;116946;-34
2022/04/17 06:46:29;;;;;;;2.38;1.58;;;;;;;8.82;50.35;102963.78;4974370;28;97610;-34
2022/04/17 06:48:54;;;;;;;2.70;1.35;;;;;;;8.87;50.47;102953.78;4974336;28;122878;-34
2022/04/17 06:51:23;;;;;;;1.58;1.20;;;;;;;9.07;49.55;102958.75;4975211;28;105715;-34
2022/04/17 06:53:50;;;;;;;2.83;1.27;;;;;;;9.21;49.39;102966.56;4974273;28;96803;-34
2022/04/17 06:56:18;;;;;;;2.28;1.35;;;;;;;9.28;48.76;102949.28;4973927;28;101011;-34
2022/04/17 06:58:47;;;;;;;2.30;1.50;;;;;;;9.50;48.96;102955.09;4973859;28;100715;-34
2022/04/17 07:01:14;;;;;;;4.50;2.00;;;;;;;9.78;49.34;102962.56;4973634;28;96808;-34
2022/04/17 07:03:42;;;;;;;4.88;1.75;;;;;;;9.85;47.60;102945.25;4974503;28;96926;-34
2022/04/17 07:06:08;;;;;;;5.43;2.15;;;;;;;10.09;48.57;102956.41;4973582;28;100957;-34
2022/04/17 07:08:33;;;;;;;1.80;1.25;;;;;;;10.14;47.91;102952.63;4975059;28;97840;-33
2022/04/17 07:10:59;;;;;;;2.05;1.40;;;;;;;10.35;47.41;102955.75;4976676;28;96935;-34
2022/04/17 07:13:25;;;;;;;3.30;1.40;;;;;;;10.40;47.58;102948.38;4975562;28;96802;-34
2022/04/17 07:15:50;;;;;;;3.05;1.67;;;;;;;10.69;47.78;102955.72;4974589;28;99348;-34
2022/04/17 07:18:16;;;;;;;2.05;1.35;;;;;;;10.83;47.40;102941.75;4974815;28;98678;-34
2022/04/17 07:20:41;;;;;;;6.43;2.05;;;;;;;11.00;47.52;102939.44;4975461;28;96779;-34
2022/04/17 07:23:07;;;;;;;1.50;1.15;;;;;;;11.20;47.33;102932.50;4975234;28;96933;-34
2022/04/17 07:25:32;;;;;;;2.40;1.58;;;;;;;11.45;47.03;102938.97;4974711;28;99319;-34
2022/04/17 07:27:58;;;;;;;3.33;1.90;;;;;;;11.59;47.11;102929.50;4973853;28;97943;-34
2022/04/17 07:30:29;;;;;;;4.18;1.55;;;;;;;11.81;46.32;102933.28;4974129;28;112665;-34
2022/04/17 07:32:56;;;;;;;3.40;2.07;;;;;;;11.99;45.57;102939.97;4973700;28;96835;-34
2022/04/17 07:35:22;;;;;;;4.07;1.80;;;;;;;12.04;45.86;102920.81;4972921;28;101025;-34
2022/04/17 07:37:58;;;;;;;3.55;2.08;;;;;;;12.19;46.19;102928.41;4974923;28;97538;-34
2022/04/17 07:40:26;;;;;;;6.30;1.65;;;;;;;12.44;45.64;102941.13;4975247;28;96581;-34
2022/04/17 07:42:53;;;;;;;2.65;1.70;;;;;;;12.52;45.73;102925.44;4973496;28;97009;-34
2022/04/17 07:45:19;;;;;;;2.83;1.50;;;;;;;12.69;45.21;102928.41;4974509;28;99100;-34
2022/04/17 07:47:45;;;;;;;2.58;1.38;;;;;;;12.88;44.69;102931.34;4973309;28;101062;-34
2022/04/17 07:50:13;;;;;;;2.28;1.55;;;;;;;13.12;44.21;102924.06;4974965;28;96726;-34
2022/04/17 07:52:39;;;;;;;3.55;1.95;;;;;;;13.33;43.51;102926.94;4957416;28;96874;-34
2022/04/17 07:55:06;;;;;;;4.15;2.20;;;;;;;13.43;44.25;102924.72;4974680;28;97968;-34
2022/04/17 07:57:53;;;;;;;2.25;1.52;;;;;;;13.45;41.93;102928.28;4973711;28;101308;-34
2022/04/17 08:00:20;;;;;;;2.08;1.38;;;;;;;13.46;44.05;102930.91;4977287;28;96808;-34
2022/04/17 08:02:52;;;;;;;2.63;1.33;;;;;;;13.52;42.84;102918.91;4976785;28;96870;-34
2022/04/17 08:05:18;;;;;;;2.92;1.65;;;;;;;13.62;42.71;102919.41;4978304;28;97435;-34
2022/04/17 08:07:43;;;;;;;3.15;1.55;;;;;;;13.76;42.57;102914.28;4977052;28;105946;-34
2022/04/17 08:10:08;;;;;;;3.20;1.73;;;;;;;14.02;42.59;102916.78;4976605;28;114220;-35
2022/04/17 08:12:34;;;;;;;3.55;1.67;;;;;;;13.98;41.13;102908.81;4978352;28;97186;-34
2022/04/17 08:15:00;;;;;;;1.77;1.38;;;;;;;14.26;42.34;102918.53;4977852;28;97341;-35
2022/04/17 08:17:25;;;;;;;3.47;1.73;;;;;;;14.29;41.05;102904.75;4975854;28;100724;-35
2022/04/17 08:19:50;;;;;;;2.35;1.70;;;;;;;14.38;41.75;102917.97;4978078;28;117296;-34
2022/04/17 08:22:16;;;;;;;4.13;2.22;;;;;;;14.55;41.57;102914.53;4980151;28;96841;-35
2022/04/17 08:24:41;;;;;;;2.88;1.75;;;;;;;14.67;41.39;102899.44;4974722;28;127910;-35
2022/04/17 08:27:06;;;;;;;2.65;1.50;;;;;;;14.69;39.92;102914.78;4975731;28;128314;-35
2022/04/17 08:29:32;;;;;;;3.40;1.85;;;;;;;14.78;40.47;102916.22;4976527;28;117072;-35
2022/04/17 08:31:57;;;;;;;3.63;1.80;;;;;;;14.88;40.46;102901.19;4977537;28;96847;-35
2022/04/17 08:34:23;;;;;;;2.80;1.63;;;;;;;14.88;39.53;102905.75;4991376;28;99002;-34
2022/04/17 08:36:48;;;;;;;3.78;1.90;;;;;;;14.96;39.72;102907.16;4996906;28;110579;-35
2022/04/17 08:39:14;;;;;;;3.13;1.90;;;;;;;14.96;40.52;102895.34;4997470;28;96677;-35
2022/04/17 08:41:43;;;;;;;2.53;1.65;;;;;;;15.20;39.80;102899.63;4997384;28;96738;-34
2022/04/17 08:44:09;;;;;;;3.40;2.05;;;;;;;15.29;38.65;102896.47;4994406;28;101171;-35
2022/04/17 08:46:34;;;;;;;3.25;1.88;;;;;;;15.45;40.23;102895.72;4995772;28;100750;-35
2022/04/17 08:49:01;;;;;;;3.60;2.13;;;;;;;15.61;39.33;102888.53;4995535;28;96546;-35
2022/04/17 08:51:28;;;;;;;2.85;1.90;;;;;;;15.76;39.71;102888.75;4995761;28;96933;-35
2022/04/17 08:53:56;;;;;;;2.72;1.90;;;;;;;15.84;38.87;102881.03;4997291;28;97983;-35
2022/04/17 08:56:21;;;;;;;2.40;1.63;;;;;;;15.92;38.72;102892.47;4995580;28;103028;-35
2022/04/17 08:58:47;;;;;;;3.17;1.77;;;;;;;15.89;39.07;102884.41;4997417;28;96561;-35
2022/04/17 09:01:17;;;;;;;7.78;1.70;;;;;;;16.03;38.14;102895.53;4997453;28;96703;-35
2022/04/17 09:03:47;;;;;;;3.75;2.20;;;;;;;16.10;37.97;102875.09;4995545;28;101674;-35
2022/04/17 09:06:18;;;;;;;3.00;1.75;;;;;;;16.29;37.39;102882.34;4995476;28;100790;-35
2022/04/17 09:09:05;;;;;;;2.58;1.73;;;;;;;16.41;37.11;102887.16;4997066;28;96572;-35
2022/04/17 09:11:32;;;;;;;3.65;1.92;;;;;;;16.47;37.54;102872.25;4997392;28;96583;-35
2022/04/17 09:14:01;;;;;;;2.95;1.60;;;;;;;16.67;36.72;102871.19;4994937;28;101020;-34
2022/04/17 09:16:29;;;;;;;4.38;1.95;;;;;;;16.77;36.55;102866.97;4995412;28;100919;-34
2022/04/17 09:19:17;;;;;;;3.55;2.10;;;;;;;16.95;36.30;102870.56;4995700;28;96555;-35
2022/04/17 09:21:43;;;;;;;3.15;1.58;;;;;;;17.09;37.05;102867.94;4996763;28;96838;-34
2022/04/17 09:24:19;;;;;;;2.60;1.63;;;;;;;17.07;35.02;102867.13;4996686;28;97440;-35
2022/04/17 09:26:58;;;;;;;4.47;2.45;;;;;;;17.20;36.29;102857.22;4995249;28;101732;-34
2022/04/17 09:29:25;;;;;;;2.35;1.83;;;;;;;17.40;36.86;102858.84;4997128;28;96610;-34
2022/04/17 09:32:03;;;;;;;2.65;1.67;;;;;;;17.54;35.73;102860.78;4997206;28;96855;-35
2022/04/17 09:34:46;;;;;;;3.92;1.75;;;;;;;17.62;34.75;102854.84;4996298;28;99025;-35
2022/04/17 09:37:17;;;;;;;2.25;1.67;;;;;;;17.86;35.18;102859.88;4996197;28;97998;-34
2022/04/17 09:39:43;;;;;;;2.45;1.40;;;;;;;17.99;35.00;102847.16;4992128;28;96849;-35
2022/04/17 09:42:08;;;;;;;2.65;1.75;;;;;;;18.14;34.85;102843.50;4975145;28;96899;-34
2022/04/17 09:44:46;;;;;;;2.78;1.77;;;;;;;18.36;35.75;102842.16;4977026;28;99342;-33
2022/04/17 09:47:14;;;;;;;3.10;2.03;;;;;;;18.50;32.67;102849.53;4974889;28;101070;-33
2022/04/17 09:50:08;;;;;;;2.42;1.63;;;;;;;18.56;33.35;102841.75;4975273;28;96675;-34
2022/04/17 09:52:40;;;;;;;2.72;1.90;;;;;;;18.41;32.05;102838.13;4979655;28;96930;-34
2022/04/17 09:55:06;;;;;;;5.47;2.50;;;;;;;18.42;34.64;102841.75;4973896;28;100598;-35
2022/04/17 09:57:34;;;;;;;5.25;2.08;;;;;;;18.58;34.66;102817.84;4973937;28;102458;-35
2022/04/17 10:00:15;;;;;;;3.42;1.85;;;;;;;18.64;34.51;102817.47;4973900;28;96840;-35
2022/04/17 10:02:44;;;;;;;3.53;1.88;;;;;;;18.67;34.14;102813.63;4974069;28;96863;-35
2022/04/17 10:05:15;;;;;;;3.58;1.92;;;;;;;18.84;34.60;102813.44;4973692;28;100748;-35
2022/04/17 10:07:43;;;;;;;3.90;1.80;;;;;;;18.94;34.09;102808.22;4974265;28;101050;-34
2022/04/17 10:10:11;;;;;;;2.97;1.92;;;;;;;19.13;32.31;102807.03;4974356;28;96789;-34
2022/04/17 10:12:39;;;;;;;3.08;1.65;;;;;;;19.18;33.17;102786.47;4974803;28;96821;-34
2022/04/17 10:15:06;;;;;;;3.30;1.92;;;;;;;19.31;33.26;102800.31;4974379;28;100879;-35
2022/04/17 10:17:36;;;;;;;4.82;1.95;;;;;;;19.45;32.61;102789.25;4974461;28;100803;-35
2022/04/17 10:20:06;;;;;;;3.13;1.58;;;;;;;19.64;33.32;102796.22;4974202;28;96557;-35
2022/04/17 10:22:33;;;;;;;2.80;1.83;;;;;;;19.57;31.61;102798.53;4976469;28;96512;-35
2022/04/17 10:24:59;;;;;;;3.17;1.77;;;;;;;19.52;32.65;102786.94;4974200;28;102169;-35
2022/04/17 10:27:30;;;;;;;2.38;1.60;;;;;;;19.59;31.63;102787.41;4975396;28;98738;-35
2022/04/17 10:30:07;;;;;;;3.20;1.70;;;;;;;19.77;30.38;102782.53;4974285;28;96813;-34
2022/04/17 10:32:32;;;;;;;3.50;1.85;;;;;;;19.96;31.56;102779.38;4976153;28;96628;-34
2022/04/17 10:35:04;;;;;;;2.35;1.70;;;;;;;19.90;31.73;102783.44;4975454;28;99298;-35
2022/04/17 10:37:51;;;;;;;3.72;1.55;;;;;;;19.90;32.48;102770.59;4974336;28;100676;-35
2022/04/17 10:40:17;;;;;;;2.72;1.52;;;;;;;20.08;31.39;102767.50;4975795;28;96610;-35
2022/04/17 10:43:15;;;;;;;3.35;1.58;;;;;;;20.19;31.26;102766.72;4974480;28;96600;-35
2022/04/17 10:46:05;;;;;;;2.72;1.63;;;;;;;20.18;31.14;102762.22;4985064;28;97644;-35
2022/04/17 10:48:30;;;;;;;2.83;1.42;;;;;;;20.21;29.57;102759.25;4975488;28;101238;-35
2022/04/17 10:50:56;;;;;;;2.15;1.50;;;;;;;20.38;31.29;102739.66;4975351;28;97199;-35
2022/04/17 10:53:26;;;;;;;2.65;1.60;;;;;;;20.41;29.54;102742.16;4975197;28;99186;-34
2022/04/17 10:56:03;;;;;;;3.88;1.55;;;;;;;20.43;29.38;102736.56;4973445;28;100865;-35
2022/04/17 10:58:45;;;;;;;1.88;1.30;;;;;;;20.36;28.21;102734.25;4973451;28;100928;-34
2022/04/17 11:01:13;;;;;;;2.00;1.35;;;;;;;20.64;29.01;102731.34;4975202;28;96690;-35
2022/04/17 11:03:52;;;;;;;2.78;1.63;;;;;;;20.67;27.95;102722.88;4975353;28;96803;-35
2022/04/17 11:06:33;;;;;;;3.15;1.55;;;;;;;20.63;28.03;102730.47;4975100;28;98097;-35
2022/04/17 11:09:27;;;;;;;3.30;1.80;;;;;;;20.77;28.30;102711.03;4973830;28;97570;-35
2022/04/17 11:12:05;;;;;;;3.10;1.80;;;;;;;20.88;28.65;102703.84;4973996;28;96705;-35
2022/04/17 11:14:30;;;;;;;3.53;1.85;;;;;;;20.99;28.38;102717.69;4974465;28;96800;-34
2022/04/17 11:16:58;;;;;;;2.92;1.75;;;;;;;20.86;29.28;102706.72;4974477;28;122304;-35
2022/04/17 11:19:25;;;;;;;2.03;1.60;;;;;;;21.09;30.11;102704.94;4972653;28;100848;-35
2022/04/17 11:21:56;;;;;;;2.90;1.90;;;;;;;21.05;28.62;102710.84;4972932;28;96608;-35
2022/04/17 11:24:22;;;;;;;3.05;1.65;;;;;;;21.09;29.17;102693.94;4973790;28;96924;-34
2022/04/17 11:26:51;;;;;;;2.88;1.67;;;;;;;21.16;29.35;102702.59;4974934;28;97328;-34
2022/04/17 11:29:16;;;;;;;3.08;1.60;;;;;;;21.11;28.74;102689.19;4974606;28;108021;-34
2022/04/17 11:31:41;;;;;;;2.88;1.67;;;;;;;21.18;29.17;102690.47;4975241;28;96783;-34
2022/04/17 11:34:07;;;;;;;4.07;1.58;;;;;;;21.14;27.60;102677.94;4975543;28;96793;-34
2022/04/17 11:36:32;;;;;;;4.28;2.08;;;;;;;21.08;28.82;102674.78;4974899;28;98020;-34
2022/04/17 11:38:58;;;;;;;3.05;1.90;;;;;;;21.01;29.73;102679.88;4975090;28;99098;-34
2022/04/17 11:41:23;;;;;;;3.65;1.90;;;;;;;21.05;29.42;102675.03;4975066;28;96517;-34
2022/04/17 11:44:00;;;;;;;3.58;1.92;;;;;;;21.23;28.53;102667.19;4973566;28;96803;-34